Arsenal, Utah
Current Conditions -  °F | °C
As of 5:58 PM on Friday 31 Oct 2014 (Local Time) from KHIF Reporting Station
Clear Clear  
Wind Chill: 66°   Ceiling: Unl
Heat Index: 66°   Visibility: 10mi
Dew Point: 32°   Wind: 3mph
Humidity: 28%   Direction: 260°W
Pressure: 29.86"   Gusts: NA
Location:  41.123°N, 112.063°W
Report Text: KHIF 312358Z AUTO 26003KT 10SM CLR 19/00 A2986 RMK AO2 SLP069 60000 T01901002 10234 20190 57011
Loading
Personal Weather Stations






























Interactive Weather Map
Tropical Storm Tracking
New forecast layout! Learn more

10-Day Weather Forecast

Advertisements
Track Severe Weather on mobile